sensor_id;sensor_type;location;lat;lon;timestamp;P1;durP1;ratioP1;P2;durP2;ratioP2
52438;SDS011;38359;53.150;6.504;2023-05-25T00:00:33;22.20;;;6.90;;
52438;SDS011;38359;53.150;6.504;2023-05-25T00:10:59;25.98;;;7.65;;
52438;SDS011;38359;53.150;6.504;2023-05-25T00:21:25;17.17;;;6.78;;
52438;SDS011;38359;53.150;6.504;2023-05-25T00:31:51;22.70;;;6.75;;
52438;SDS011;38359;53.150;6.504;2023-05-25T00:42:17;20.02;;;6.28;;
52438;SDS011;38359;53.150;6.504;2023-05-25T00:52:44;28.05;;;7.70;;
52438;SDS011;38359;53.150;6.504;2023-05-25T01:03:11;22.98;;;6.93;;
52438;SDS011;38359;53.150;6.504;2023-05-25T01:13:41;28.73;;;7.28;;
52438;SDS011;38359;53.150;6.504;2023-05-25T01:34:49;23.95;;;7.90;;
52438;SDS011;38359;53.150;6.504;2023-05-25T01:45:19;19.58;;;6.55;;
52438;SDS011;38359;53.150;6.504;2023-05-25T01:55:46;15.38;;;6.68;;
52438;SDS011;38359;53.150;6.504;2023-05-25T02:06:26;16.05;;;6.85;;
52438;SDS011;38359;53.150;6.504;2023-05-25T02:16:52;17.95;;;6.88;;
52438;SDS011;38359;53.150;6.504;2023-05-25T02:27:18;19.80;;;6.95;;
52438;SDS011;38359;53.150;6.504;2023-05-25T02:37:44;19.80;;;7.55;;
52438;SDS011;38359;53.150;6.504;2023-05-25T02:48:09;22.50;;;7.13;;
52438;SDS011;38359;53.150;6.504;2023-05-25T02:58:36;20.38;;;7.30;;
52438;SDS011;38359;53.150;6.504;2023-05-25T03:09:02;13.18;;;6.68;;
52438;SDS011;38359;53.150;6.504;2023-05-25T03:19:30;30.23;;;7.70;;
52438;SDS011;38359;53.150;6.504;2023-05-25T03:29:56;14.40;;;6.90;;
52438;SDS011;38359;53.150;6.504;2023-05-25T03:40:22;30.40;;;9.00;;
52438;SDS011;38359;53.150;6.504;2023-05-25T03:50:47;34.92;;;9.13;;
52438;SDS011;38359;53.150;6.504;2023-05-25T04:01:13;24.42;;;10.18;;
52438;SDS011;38359;53.150;6.504;2023-05-25T04:11:40;24.30;;;9.70;;
52438;SDS011;38359;53.150;6.504;2023-05-25T04:22:06;25.63;;;9.63;;
52438;SDS011;38359;53.150;6.504;2023-05-25T04:32:32;33.88;;;10.93;;
52438;SDS011;38359;53.150;6.504;2023-05-25T04:43:01;31.38;;;10.45;;
52438;SDS011;38359;53.150;6.504;2023-05-25T04:53:29;29.60;;;11.63;;
52438;SDS011;38359;53.150;6.504;2023-05-25T05:03:56;26.88;;;11.70;;
52438;SDS011;38359;53.150;6.504;2023-05-25T05:14:22;32.40;;;12.10;;
52438;SDS011;38359;53.150;6.504;2023-05-25T05:24:48;32.60;;;13.18;;
52438;SDS011;38359;53.150;6.504;2023-05-25T05:35:13;35.90;;;13.73;;
52438;SDS011;38359;53.150;6.504;2023-05-25T05:45:39;35.55;;;11.90;;
52438;SDS011;38359;53.150;6.504;2023-05-25T05:56:05;36.72;;;12.32;;
52438;SDS011;38359;53.150;6.504;2023-05-25T06:06:41;31.05;;;9.73;;
52438;SDS011;38359;53.150;6.504;2023-05-25T06:17:07;26.42;;;8.48;;
52438;SDS011;38359;53.150;6.504;2023-05-25T06:27:32;22.55;;;6.75;;
52438;SDS011;38359;53.150;6.504;2023-05-25T06:37:58;26.08;;;4.40;;
52438;SDS011;38359;53.150;6.504;2023-05-25T06:48:24;22.92;;;5.32;;
52438;SDS011;38359;53.150;6.504;2023-05-25T06:58:50;28.35;;;4.93;;
52438;SDS011;38359;53.150;6.504;2023-05-25T07:09:16;26.88;;;5.60;;
52438;SDS011;38359;53.150;6.504;2023-05-25T07:19:42;36.67;;;6.03;;
52438;SDS011;38359;53.150;6.504;2023-05-25T07:30:08;31.02;;;5.90;;
52438;SDS011;38359;53.150;6.504;2023-05-25T07:40:34;35.65;;;6.22;;
52438;SDS011;38359;53.150;6.504;2023-05-25T07:51:00;35.05;;;6.65;;
52438;SDS011;38359;53.150;6.504;2023-05-25T08:01:26;43.55;;;6.47;;
52438;SDS011;38359;53.150;6.504;2023-05-25T08:11:52;38.97;;;6.57;;
52438;SDS011;38359;53.150;6.504;2023-05-25T08:22:18;47.25;;;6.78;;
52438;SDS011;38359;53.150;6.504;2023-05-25T08:32:44;42.78;;;6.97;;
52438;SDS011;38359;53.150;6.504;2023-05-25T08:43:10;29.48;;;6.20;;
52438;SDS011;38359;53.150;6.504;2023-05-25T08:53:39;34.50;;;6.40;;
52438;SDS011;38359;53.150;6.504;2023-05-25T09:04:05;35.35;;;6.72;;
52438;SDS011;38359;53.150;6.504;2023-05-25T09:14:34;41.63;;;6.80;;
52438;SDS011;38359;53.150;6.504;2023-05-25T09:25:03;32.60;;;6.15;;
52438;SDS011;38359;53.150;6.504;2023-05-25T09:35:32;35.00;;;6.35;;
52438;SDS011;38359;53.150;6.504;2023-05-25T09:45:58;29.98;;;5.82;;
52438;SDS011;38359;53.150;6.504;2023-05-25T09:56:25;36.65;;;6.60;;
52438;SDS011;38359;53.150;6.504;2023-05-25T10:06:56;39.72;;;7.05;;
52438;SDS011;38359;53.150;6.504;2023-05-25T10:17:22;38.90;;;7.43;;
52438;SDS011;38359;53.150;6.504;2023-05-25T10:27:57;40.70;;;7.38;;
52438;SDS011;38359;53.150;6.504;2023-05-25T10:38:26;46.85;;;7.28;;
52438;SDS011;38359;53.150;6.504;2023-05-25T10:48:55;42.15;;;7.95;;
52438;SDS011;38359;53.150;6.504;2023-05-25T10:59:26;42.83;;;7.47;;
52438;SDS011;38359;53.150;6.504;2023-05-25T11:09:55;40.65;;;7.20;;
52438;SDS011;38359;53.150;6.504;2023-05-25T11:20:25;37.85;;;7.30;;
52438;SDS011;38359;53.150;6.504;2023-05-25T11:30:52;37.60;;;7.40;;
52438;SDS011;38359;53.150;6.504;2023-05-25T11:41:21;33.22;;;6.13;;
52438;SDS011;38359;53.150;6.504;2023-05-25T11:51:48;38.13;;;7.10;;
52438;SDS011;38359;53.150;6.504;2023-05-25T12:02:15;36.55;;;6.93;;
52438;SDS011;38359;53.150;6.504;2023-05-25T12:12:42;44.33;;;7.93;;
52438;SDS011;38359;53.150;6.504;2023-05-25T12:23:09;38.95;;;6.57;;
52438;SDS011;38359;53.150;6.504;2023-05-25T12:33:36;33.85;;;6.22;;
52438;SDS011;38359;53.150;6.504;2023-05-25T12:44:02;34.30;;;7.03;;
52438;SDS011;38359;53.150;6.504;2023-05-25T12:54:34;31.55;;;7.15;;
52438;SDS011;38359;53.150;6.504;2023-05-25T13:05:22;33.85;;;7.60;;
52438;SDS011;38359;53.150;6.504;2023-05-25T13:15:48;41.05;;;6.72;;
52438;SDS011;38359;53.150;6.504;2023-05-25T13:26:14;44.65;;;7.07;;
52438;SDS011;38359;53.150;6.504;2023-05-25T13:36:40;44.87;;;7.90;;
52438;SDS011;38359;53.150;6.504;2023-05-25T13:47:06;84.28;;;8.68;;
52438;SDS011;38359;53.150;6.504;2023-05-25T13:57:31;73.57;;;7.82;;
52438;SDS011;38359;53.150;6.504;2023-05-25T14:07:57;66.50;;;8.53;;
52438;SDS011;38359;53.150;6.504;2023-05-25T14:18:26;39.45;;;7.15;;
52438;SDS011;38359;53.150;6.504;2023-05-25T14:28:52;34.38;;;6.43;;
52438;SDS011;38359;53.150;6.504;2023-05-25T14:39:18;27.92;;;6.00;;
52438;SDS011;38359;53.150;6.504;2023-05-25T14:49:44;32.72;;;6.43;;
52438;SDS011;38359;53.150;6.504;2023-05-25T15:00:09;40.23;;;7.40;;
52438;SDS011;38359;53.150;6.504;2023-05-25T15:10:36;35.05;;;6.85;;
52438;SDS011;38359;53.150;6.504;2023-05-25T15:21:02;30.63;;;6.30;;
52438;SDS011;38359;53.150;6.504;2023-05-25T15:31:27;31.73;;;6.78;;
52438;SDS011;38359;53.150;6.504;2023-05-25T15:41:53;32.47;;;7.03;;
52438;SDS011;38359;53.150;6.504;2023-05-25T15:52:19;25.98;;;6.15;;
52438;SDS011;38359;53.150;6.504;2023-05-25T16:02:45;29.02;;;6.60;;
52438;SDS011;38359;53.150;6.504;2023-05-25T16:13:11;32.80;;;6.30;;
52438;SDS011;38359;53.150;6.504;2023-05-25T16:23:37;36.00;;;6.03;;
52438;SDS011;38359;53.150;6.504;2023-05-25T16:34:06;29.90;;;6.35;;
52438;SDS011;38359;53.150;6.504;2023-05-25T16:44:32;42.50;;;6.63;;
52438;SDS011;38359;53.150;6.504;2023-05-25T16:54:57;32.35;;;6.22;;
52438;SDS011;38359;53.150;6.504;2023-05-25T17:05:23;28.50;;;6.95;;
52438;SDS011;38359;53.150;6.504;2023-05-25T17:15:49;36.08;;;6.70;;
52438;SDS011;38359;53.150;6.504;2023-05-25T17:26:15;28.83;;;6.85;;
52438;SDS011;38359;53.150;6.504;2023-05-25T17:36:40;32.53;;;7.00;;
52438;SDS011;38359;53.150;6.504;2023-05-25T17:47:06;30.55;;;6.03;;
52438;SDS011;38359;53.150;6.504;2023-05-25T17:57:32;34.15;;;7.47;;
52438;SDS011;38359;53.150;6.504;2023-05-25T18:07:58;31.85;;;6.75;;
52438;SDS011;38359;53.150;6.504;2023-05-25T18:18:24;30.90;;;6.20;;
52438;SDS011;38359;53.150;6.504;2023-05-25T18:28:50;37.30;;;6.80;;
52438;SDS011;38359;53.150;6.504;2023-05-25T18:39:15;40.20;;;6.97;;
52438;SDS011;38359;53.150;6.504;2023-05-25T18:49:41;36.42;;;6.50;;
52438;SDS011;38359;53.150;6.504;2023-05-25T19:00:08;41.65;;;6.95;;
52438;SDS011;38359;53.150;6.504;2023-05-25T19:10:35;39.90;;;7.25;;
52438;SDS011;38359;53.150;6.504;2023-05-25T19:21:01;41.15;;;7.35;;
52438;SDS011;38359;53.150;6.504;2023-05-25T19:31:27;40.22;;;7.35;;
52438;SDS011;38359;53.150;6.504;2023-05-25T19:41:53;42.80;;;7.35;;
52438;SDS011;38359;53.150;6.504;2023-05-25T19:52:19;38.22;;;6.68;;
52438;SDS011;38359;53.150;6.504;2023-05-25T20:02:44;42.15;;;7.22;;
52438;SDS011;38359;53.150;6.504;2023-05-25T20:13:10;47.50;;;7.70;;
52438;SDS011;38359;53.150;6.504;2023-05-25T20:23:36;46.20;;;8.02;;
52438;SDS011;38359;53.150;6.504;2023-05-25T20:34:02;56.20;;;8.48;;
52438;SDS011;38359;53.150;6.504;2023-05-25T20:44:28;45.08;;;7.95;;
52438;SDS011;38359;53.150;6.504;2023-05-25T20:54:55;41.17;;;7.07;;
52438;SDS011;38359;53.150;6.504;2023-05-25T21:05:21;49.78;;;7.50;;
52438;SDS011;38359;53.150;6.504;2023-05-25T21:15:47;37.35;;;6.20;;
52438;SDS011;38359;53.150;6.504;2023-05-25T21:26:13;38.25;;;7.30;;
52438;SDS011;38359;53.150;6.504;2023-05-25T21:36:38;35.08;;;6.60;;
52438;SDS011;38359;53.150;6.504;2023-05-25T21:47:04;48.67;;;7.68;;
52438;SDS011;38359;53.150;6.504;2023-05-25T21:57:30;47.17;;;7.18;;
52438;SDS011;38359;53.150;6.504;2023-05-25T22:07:56;48.08;;;7.07;;
52438;SDS011;38359;53.150;6.504;2023-05-25T22:18:21;39.90;;;7.22;;
52438;SDS011;38359;53.150;6.504;2023-05-25T22:28:47;48.33;;;7.10;;
52438;SDS011;38359;53.150;6.504;2023-05-25T22:39:13;45.95;;;6.88;;
52438;SDS011;38359;53.150;6.504;2023-05-25T22:49:39;43.70;;;7.20;;
52438;SDS011;38359;53.150;6.504;2023-05-25T23:00:05;31.80;;;6.28;;
52438;SDS011;38359;53.150;6.504;2023-05-25T23:10:32;50.42;;;7.03;;
52438;SDS011;38359;53.150;6.504;2023-05-25T23:20:58;48.10;;;7.68;;
52438;SDS011;38359;53.150;6.504;2023-05-25T23:31:24;49.17;;;7.53;;
52438;SDS011;38359;53.150;6.504;2023-05-25T23:41:50;43.70;;;8.52;;
52438;SDS011;38359;53.150;6.504;2023-05-25T23:52:16;50.25;;;7.75;;
